Hopkins, South Carolina
Current Conditions -  °F | °C
As of 7:58 PM on Monday 20 Oct 2014 (Local Time) from KMMT Reporting Station
Scattered Clouds Scattered Clouds  
Wind Chill: 60°   Ceiling: Unl
Heat Index: 60°   Visibility: 10mi
Dew Point: 56°   Wind: 1mph
Humidity: 87%   Direction: 20°NNE
Pressure: 30.01"   Gusts: NA
Location:  33.9°N, 80.88°W
Report Text: KMMT 202358Z 02001KT 10SM SCT055 SCT250 15/13 A3001 RMK AO2A SLP165 T01530132 10240 20153 53005
Loading
Personal Weather Stations






























Interactive Weather Map
Tropical Storm Tracking
New forecast layout! Learn more

10-Day Weather Forecast

Advertisements
Track Severe Weather on mobile